Map

Track Data

SID SEASON NUMBER BASIN SUBBASIN NAME ISO_TIME NATURE LAT LON WMO_WIND WMO_PRES WMO_AGENCY TRACK_TYPE DIST2LAND LANDFALL IFLAG USA_AGENCY USA_ATCF_ID USA_LAT USA_LON USA_RECORD USA_STATUS USA_WIND USA_PRES USA_SSHS USA_R34_NE USA_R34_SE USA_R34_SW USA_R34_NW USA_R50_NE USA_R50_SE USA_R50_SW USA_R50_NW USA_R64_NE USA_R64_SE USA_R64_SW USA_R64_NW USA_POCI USA_ROCI USA_RMW USA_EYE TOKYO_LAT TOKYO_LON TOKYO_GRADE TOKYO_WIND TOKYO_PRES TOKYO_R50_DIR TOKYO_R50_LONG TOKYO_R50_SHORT TOKYO_R30_DIR TOKYO_R30_LONG TOKYO_R30_SHORT TOKYO_LAND CMA_LAT CMA_LON CMA_CAT CMA_WIND CMA_PRES HKO_LAT HKO_LON HKO_CAT HKO_WIND HKO_PRES NEWDELHI_LAT NEWDELHI_LON NEWDELHI_GRADE NEWDELHI_WIND NEWDELHI_PRES NEWDELHI_CI NEWDELHI_DP NEWDELHI_POCI REUNION_LAT REUNION_LON REUNION_TYPE REUNION_WIND REUNION_PRES REUNION_TNUM REUNION_CI REUNION_RMW REUNION_R34_NE REUNION_R34_SE REUNION_R34_SW REUNION_R34_NW REUNION_R50_NE REUNION_R50_SE REUNION_R50_SW REUNION_R50_NW REUNION_R64_NE REUNION_R64_SE REUNION_R64_SW REUNION_R64_NW BOM_LAT BOM_LON BOM_TYPE BOM_WIND BOM_PRES BOM_TNUM BOM_CI BOM_RMW BOM_R34_NE BOM_R34_SE BOM_R34_SW BOM_R34_NW BOM_R50_NE BOM_R50_SE BOM_R50_SW BOM_R50_NW BOM_R64_NE BOM_R64_SE BOM_R64_SW BOM_R64_NW BOM_ROCI BOM_POCI BOM_EYE BOM_POS_METHOD BOM_PRES_METHOD NADI_LAT NADI_LON NADI_CAT NADI_WIND NADI_PRES WELLINGTON_LAT WELLINGTON_LON WELLINGTON_WIND WELLINGTON_PRES DS824_LAT DS824_LON DS824_STAGE DS824_WIND DS824_PRES TD9636_LAT TD9636_LON TD9636_STAGE TD9636_WIND TD9636_PRES TD9635_LAT TD9635_LON TD9635_WIND TD9635_PRES TD9635_ROCI NEUMANN_LAT NEUMANN_LON NEUMANN_CLASS NEUMANN_WIND NEUMANN_PRES MLC_LAT MLC_LON MLC_CLASS MLC_WIND MLC_PRES USA_GUST BOM_GUST BOM_GUST_PER REUNION_GUST REUNION_GUST_PER USA_SEAHGT USA_SEARAD_NE USA_SEARAD_SE USA_SEARAD_SW USA_SEARAD_NW STORM_SPEED STORM_DIR
1907224N21088 1907 38 NI BB NOT_NAMED 1907-08-12 00:00:00 TS 20.6000 87.8000 main 83 83 _________O____ -1 20.6000 87.8000 TC 30 0 0
1907224N21088 1907 38 NI BB NOT_NAMED 1907-08-12 03:00:00 TS 20.6000 87.8000 main 83 83 _________PO___ -1 20.6000 87.8000 TC 30 20.6000 87.8000 1 0 0
1907224N21088 1907 38 NI BB NOT_NAMED 1907-08-12 06:00:00 TS 20.6000 87.8000 main 83 83 _________OP___ -1 20.6000 87.8000 TC 30 20.6000 87.8000 1 0 0
1907224N21088 1907 38 NI BB NOT_NAMED 1907-08-12 09:00:00 TS 20.6000 87.8000 main 83 83 _________PP___ -1 20.6000 87.8000 TC 30 20.6000 87.8000 1 0 0
1907224N21088 1907 38 NI BB NOT_NAMED 1907-08-12 12:00:00 TS 20.6000 87.8000 main 83 83 _________OP___ -1 20.6000 87.8000 TC 30 20.6000 87.8000 1 0 0
1907224N21088 1907 38 NI BB NOT_NAMED 1907-08-12 15:00:00 TS 20.6000 87.8000 main 83 83 _________PO___ -1 20.6000 87.8000 TC 30 20.6000 87.8000 1 0 0
1907224N21088 1907 38 NI BB NOT_NAMED 1907-08-12 18:00:00 TS 20.6000 87.8000 main 83 83 _________OP___ -1 20.6000 87.8000 TC 30 20.6000 87.8000 1 0 0
1907224N21088 1907 38 NI BB NOT_NAMED 1907-08-12 21:00:00 TS 20.6000 87.8000 main 83 83 _________PP___ -1 20.6000 87.8000 TC 30 20.6000 87.8000 1 0 0
1907224N21088 1907 38 NI BB NOT_NAMED 1907-08-13 00:00:00 TS 20.6000 87.8000 main 83 83 _________OP___ -1 20.6000 87.8000 TC 30 20.6000 87.8000 1 0 0
1907224N21088 1907 38 NI BB NOT_NAMED 1907-08-13 03:00:00 TS 20.6000 87.8000 main 83 83 _________PO___ -1 20.6000 87.8000 TC 30 20.6000 87.8000 1 0 0
1907224N21088 1907 38 NI BB NOT_NAMED 1907-08-13 06:00:00 TS 20.6000 87.8000 main 83 83 _________OP___ -1 20.6000 87.8000 TC 30 20.6000 87.8000 1 0 0
1907224N21088 1907 38 NI BB NOT_NAMED 1907-08-13 09:00:00 TS 20.6000 87.8000 main 83 83 _________PP___ -1 20.6000 87.8000 TC 30 20.6000 87.8000 1 0 0
1907224N21088 1907 38 NI BB NOT_NAMED 1907-08-13 12:00:00 TS 20.6000 87.8000 main 83 83 _________OP___ -1 20.6000 87.8000 TC 30 20.6000 87.8000 1 0 0
1907224N21088 1907 38 NI BB NOT_NAMED 1907-08-13 15:00:00 TS 20.6000 87.8000 main 83 83 _________PO___ -1 20.6000 87.8000 TC 30 20.6000 87.8000 1 0 121
1907224N21088 1907 38 NI BB NOT_NAMED 1907-08-13 18:00:00 TS 20.5795 87.8383 main 83 83 _________OP___ -1 20.6000 87.8000 TC 30 20.5589 87.8766 1 1 120
1907224N21088 1907 38 NI BB NOT_NAMED 1907-08-13 21:00:00 TS 20.5470 87.8969 main 96 94 _________PP___ -1 20.5699 87.8524 TC 30 20.5242 87.9415 1 0 0
1907224N21088 1907 38 NI BB NOT_NAMED 1907-08-14 00:00:00 TS 20.5637 87.8678 main 94 72 _________OP___ -1 20.6000 87.8000 TC 30 20.5273 87.9356 1 2 301
1907224N21088 1907 38 NI BB NOT_NAMED 1907-08-14 03:00:00 TS 20.6774 87.6699 main 72 33 _________PO___ -1 20.7548 87.5398 TC 30 20.6000 87.8000 1 6 301
1907224N21088 1907 38 NI BB NOT_NAMED 1907-08-14 06:00:00 TS 20.8955 87.2833 main 33 0 _________OP___ -1 21.0000 87.1000 TC 30 20.7909 87.4666 1 10 300
1907224N21088 1907 38 NI BB NOT_NAMED 1907-08-14 09:00:00 TS 21.1743 86.7622 main 0 0 _________PP___ -1 21.3003 86.5229 TC 30 21.0484 87.0015 1 12 299
1907224N21088 1907 38 NI BB NOT_NAMED 1907-08-14 12:00:00 TS 21.4658 86.1802 main 0 0 _________OP___ -1 21.6000 85.9000 TC 30 21.3315 86.4604 1 12 297
1907224N21088 1907 38 NI BB NOT_NAMED 1907-08-14 15:00:00 TS 21.7111 85.6424 main 0 0 _________PO___ -1 21.8222 85.3847 TC 30 21.6000 85.9000 1 11 294
1907224N21088 1907 38 NI BB NOT_NAMED 1907-08-14 18:00:00 TS 21.8962 85.1452 main 0 0 _________OP___ -1 22.0000 84.9000 TC 30 21.7925 85.3904 1 10 290
1907224N21088 1907 38 NI BB NOT_NAMED 1907-08-14 21:00:00 TS 22.0575 84.6308 main 0 0 _________PP___ -1 22.1500 84.3848 TC 30 21.9650 84.8767 1 10 289
1907224N21088 1907 38 NI BB NOT_NAMED 1907-08-15 00:00:00 TS 22.2150 84.1374 main 0 0 _________OP___ -1 22.3000 83.9000 TC 30 22.1300 84.3748 1 9 291
1907224N21088 1907 38 NI BB NOT_NAMED 1907-08-15 03:00:00 TS 22.3961 83.6925 main 0 0 _________PO___ -1 22.4923 83.4849 TC 30 22.3000 83.9000 1 9 296
1907224N21088 1907 38 NI BB NOT_NAMED 1907-08-15 06:00:00 TS 22.5941 83.2794 main 0 0 _________OP___ -1 22.7000 83.1000 TC 30 22.4883 83.4587 1 9 298
1907224N21088 1907 38 NI BB NOT_NAMED 1907-08-15 09:00:00 TS 22.7922 82.8697 main 0 0 _________PP___ -1 22.9000 82.6924 TC 30 22.6844 83.0471 1 8 299
1907224N21088 1907 38 NI BB NOT_NAMED 1907-08-15 12:00:00 TS 22.9942 82.4809 main 0 0 _________OP___ -1 23.1000 82.3000 TC 30 22.8884 82.6619 1 8 300
1907224N21088 1907 38 NI BB NOT_NAMED 1907-08-15 15:00:00 TS 23.1962 82.1174 main 0 0 _________PO___ -1 23.2924 81.9348 TC 30 23.1000 82.3000 1 7 303
1907224N21088 1907 38 NI BB NOT_NAMED 1907-08-15 18:00:00 TS 23.3964 81.8046 main 0 0 _________OP___ -1 23.5000 81.6000 TC 30 23.3188 81.9580 1 7 307
1907224N21088 1907 38 NI BB NOT_NAMED 1907-08-15 21:00:00 TS 23.6219 81.4956 main 0 0 _________PP___ -1 23.7401 81.2928 TC 30 23.5430 81.6309 1 7 310
1907224N21088 1907 38 NI BB NOT_NAMED 1907-08-16 00:00:00 TS 23.8472 81.2089 main 0 0 _________OP___ -1 24.0000 81.0000 TC 30 23.7708 81.3133 1 6 310
1907224N21088 1907 38 NI BB NOT_NAMED 1907-08-16 03:00:00 NR 24.0000 81.0000 main 0 __________O___ -1 TC 24.0000 81.0000 1 5 309

About IBTrACS Database

This database is a web-friendly format of International Best Track Archive for Climate Stewardship (IBTrACS), a global best track data archive curated by NOAA dating back to 1842.

Updated: 2021-12-03